Airfield :
LOGIN :

Register | Disclaimer

   EN    FR    IT 

 










Legend :    VFR   Marginal VFR   IFR   Intensive IFR   Very Intensive IFR
Visi :
Ceiling :
>= 8 km
>= 3000ft
5 to 8 km
1000 to 3000 ft
1500m to 5 km
500 to 1000 ft
800 to 1500m
200 to 500 ft
< 800m
< 200 ft
Symbols :   Thunderstorms  Fog  Heavy snow  Heavy precipitations  Wind > 20 kt
SIGMETs :     Misc.  Thunderstorms  Icing  Turbulence  Mountain Waves  Volcanic Ashes







- Airport Elevation : 106 ft
- IATA code : NRN


EDLV - Weeze

CURRENT METAR :
  • 232020Z 27006KT CAVOK 10/10 Q1021

EXPIRED METARs :
  • 231950Z 28006KT CAVOK 10/10 Q1021
  • 231920Z 28008KT 250V310 CAVOK 09/09 Q1020
  • 231850Z 27006KT 250V320 CAVOK 09/09 Q1019
  • 231820Z 30004KT 250V340 9999 BKN045 09/09 Q1018

TAF TAF EDLV
Valid from the 23 at 18:00 until the 24 at 18:00 UTC


231700Z 2318/2418 31005KT 9999 BKN040
BECMG 2408/2411 29010KT
BECMG 2416/2418 29004KT
No reported NOTAMs for that airfield.
2 SIGMETs reported for the Langen FIR (EDGG) :
 
Severe turbulence
EDGG SIGMET 11 VALID 232000/232100 EDZF
EDGG LANGEN FIR SEV TURB FCST S OF N4900 SFC/FL100 MOV SE WKN=
Severe turbulence
EDGG SIGMET 10 VALID 231730/232130 EDZF
EDGG LANGEN FIR SEV TURB FCST WI N5204 E00901 - N5127 E00910 - N5124 E01046 - N5030 E01048 - N4920 E00744 - N5034 E00627 - N5120 E00713 - N5204 E00901 FL160/245 MOV E WKN=



MET'MAP, your aeronautical weather chart ! - Copyright ORBIFLY December 2007 - Disclaimer

ORBIFLY MET'MAP TEAM :

Programming & Development : Alexandra Zaïnal
Concept & Development : Baudouin d'Aumeries
Co-Development & Prog : Marc-Olivier Méhu
Technical & hardware support : Manuel Goepfert

Contact : metmap@orbifly.com




SOURCES & CREDITS :

   NOAA